createdAt,value
2022-10-29T00:02:30.605Z,98167.00
2022-10-29T00:05:17.510Z,98181.00
2022-10-29T00:07:57.963Z,98151.00
2022-10-29T00:10:44.518Z,98164.00
2022-10-29T00:13:24.594Z,98160.00
2022-10-29T00:16:13.558Z,98161.00
2022-10-29T00:18:53.624Z,98151.00
2022-10-29T00:21:40.550Z,98164.00
2022-10-29T00:24:27.512Z,98158.00
2022-10-29T00:27:08.228Z,98163.00
2022-10-29T00:29:54.566Z,98153.00
2022-10-29T00:32:35.340Z,98150.00
2022-10-29T00:35:22.549Z,98155.00
2022-10-29T00:38:03.199Z,98153.00
2022-10-29T00:40:51.586Z,98157.00
2022-10-29T00:43:38.975Z,98160.00
2022-10-29T00:47:01.545Z,98158.00
2022-10-29T00:49:50.536Z,98163.00
2022-10-29T00:52:36.617Z,98147.00
2022-10-29T00:55:25.538Z,98156.00
2022-10-29T00:58:05.609Z,98156.00
2022-10-29T01:00:52.583Z,98157.00
2022-10-29T01:03:32.609Z,98165.00
2022-10-29T01:06:21.544Z,98162.00
2022-10-29T01:09:01.801Z,98152.00
2022-10-29T01:12:35.561Z,98159.00
2022-10-29T01:16:01.560Z,98166.00
2022-10-29T01:19:20.636Z,98152.00
2022-10-29T01:22:44.558Z,98147.00
2022-10-29T01:26:14.572Z,98157.00
2022-10-29T01:29:35.554Z,98144.00
2022-10-29T01:32:24.819Z,98161.00
2022-10-29T01:35:52.560Z,98158.00
2022-10-29T01:39:15.591Z,98158.00
2022-10-29T01:42:16.617Z,98135.00
2022-10-29T01:45:31.602Z,98139.00
2022-10-29T01:48:29.012Z,98128.00
2022-10-29T01:51:29.569Z,98135.00
2022-10-29T01:54:16.612Z,98130.00
2022-10-29T01:57:05.621Z,98137.00
2022-10-29T01:59:56.154Z,98130.00
2022-10-29T02:03:24.734Z,98123.00
2022-10-29T02:06:39.583Z,98131.00
2022-10-29T02:09:45.770Z,98139.00
2022-10-29T02:12:46.578Z,98134.00
2022-10-29T02:15:43.572Z,98127.00
2022-10-29T02:18:24.649Z,98120.00
2022-10-29T02:21:11.580Z,98113.00
2022-10-29T02:23:52.686Z,98121.00
2022-10-29T02:26:39.591Z,98136.00
2022-10-29T02:29:26.605Z,98125.00
2022-10-29T02:32:07.236Z,98113.00
2022-10-29T02:34:53.713Z,98128.00
2022-10-29T02:37:40.585Z,98115.00
2022-10-29T02:40:27.594Z,98096.00
2022-10-29T02:43:08.287Z,98094.00
2022-10-29T02:45:54.599Z,98092.00
2022-10-29T02:48:48.590Z,98079.00
2022-10-29T02:51:29.238Z,98077.00
2022-10-29T02:54:15.595Z,98077.00
2022-10-29T02:56:56.245Z,98085.00
2022-10-29T02:59:42.604Z,98086.00
2022-10-29T03:02:23.361Z,98091.00
2022-10-29T03:05:09.613Z,98080.00
2022-10-29T03:07:56.593Z,98097.00
2022-10-29T03:10:43.609Z,98095.00
2022-10-29T03:13:30.687Z,98096.00
2022-10-29T03:16:11.719Z,98091.00
2022-10-29T03:18:58.631Z,98087.00
2022-10-29T03:21:38.701Z,98080.00
2022-10-29T03:24:25.637Z,98098.00
2022-10-29T03:27:05.776Z,98102.00
2022-10-29T03:29:52.628Z,98099.00
2022-10-29T03:32:32.693Z,98104.00
2022-10-29T03:35:22.633Z,98094.00
2022-10-29T03:38:09.641Z,98102.00
2022-10-29T03:40:50.509Z,98093.00
2022-10-29T03:43:37.657Z,98102.00
2022-10-29T03:46:18.275Z,98100.00
2022-10-29T03:49:04.645Z,98080.00
2022-10-29T03:51:45.312Z,98096.00
2022-10-29T03:54:31.651Z,98084.00
2022-10-29T03:57:13.003Z,98084.00
2022-10-29T03:59:59.655Z,98077.00
2022-10-29T04:02:46.347Z,98084.00
2022-10-29T04:05:32.638Z,98094.00
2022-10-29T04:08:19.703Z,98084.00
2022-10-29T04:11:07.639Z,98061.00
2022-10-29T04:13:58.669Z,98066.00
2022-10-29T04:16:45.654Z,98077.00
2022-10-29T04:19:32.641Z,98075.00
2022-10-29T04:28:43.611Z,98072.00
2022-10-29T04:31:24.267Z,98075.00
2022-10-29T04:34:10.698Z,98073.00
2022-10-29T04:36:52.604Z,98074.00
2022-10-29T04:39:39.685Z,98085.00
2022-10-29T04:42:26.648Z,98080.00
2022-10-29T04:45:13.660Z,98093.00
2022-10-29T04:48:02.412Z,98076.00
2022-10-29T04:50:51.662Z,98070.00
2022-10-29T04:53:38.679Z,98077.00
2022-10-29T04:56:18.725Z,98087.00
2022-10-29T04:59:05.713Z,98083.00
2022-10-29T05:01:45.742Z,98073.00
2022-10-29T05:04:34.718Z,98088.00
2022-10-29T05:07:14.723Z,98076.00
2022-10-29T05:10:01.661Z,98066.00
2022-10-29T05:12:41.759Z,98066.00
2022-10-29T05:15:28.697Z,98033.00
2022-10-29T05:18:16.715Z,98030.00
2022-10-29T05:20:57.880Z,98025.00
2022-10-29T05:23:44.715Z,98010.00
2022-10-29T05:26:25.453Z,98013.00
2022-10-29T05:29:11.674Z,98006.00
2022-10-29T05:31:55.374Z,98013.00
2022-10-29T05:34:49.710Z,98011.00
2022-10-29T05:37:30.320Z,98033.00
2022-10-29T05:40:16.696Z,98034.00
2022-10-29T05:42:57.578Z,98018.00
2022-10-29T05:45:45.708Z,98016.00
2022-10-29T05:48:32.691Z,98007.00
2022-10-29T05:51:12.782Z,98018.00
2022-10-29T05:53:59.727Z,98016.00
2022-10-29T05:56:39.759Z,98034.00
2022-10-29T05:59:31.090Z,97993.00
2022-10-29T06:02:23.786Z,98010.00
2022-10-29T06:05:10.721Z,98023.00
2022-10-29T06:07:50.770Z,98022.00
2022-10-29T06:10:37.690Z,98027.00
2022-10-29T06:13:33.704Z,98017.00
2022-10-29T06:16:14.334Z,98025.00
2022-10-29T06:19:00.731Z,98033.00
2022-10-29T06:21:41.630Z,98035.00
2022-10-29T06:24:28.747Z,98030.00
2022-10-29T06:27:15.789Z,98040.00
2022-10-29T06:29:55.730Z,98036.00
2022-10-29T06:32:36.429Z,98038.00
2022-10-29T06:35:22.774Z,98047.00
2022-10-29T06:38:09.271Z,98049.00
2022-10-29T06:41:05.745Z,98047.00
2022-10-29T06:43:52.744Z,98050.00
2022-10-29T06:46:34.860Z,98050.00
2022-10-29T06:49:21.757Z,98050.00
2022-10-29T06:52:01.804Z,98056.00
2022-10-29T06:54:48.742Z,98045.00
2022-10-29T06:57:28.862Z,98043.00
2022-10-29T07:00:16.860Z,98044.00
2022-10-29T07:03:03.786Z,98043.00
2022-10-29T07:05:44.773Z,98017.00
2022-10-29T07:08:31.745Z,98022.00
2022-10-29T07:11:12.377Z,98016.00
2022-10-29T07:13:58.762Z,98013.00
2022-10-29T07:16:39.407Z,97995.00
2022-10-29T07:19:25.787Z,98010.00
2022-10-29T07:22:06.363Z,98004.00
2022-10-29T07:24:54.779Z,98018.00
2022-10-29T07:27:43.796Z,98021.00
2022-10-29T07:30:31.756Z,98027.00
2022-10-29T07:33:18.764Z,98034.00
2022-10-29T07:36:03.835Z,98050.00
2022-10-29T07:38:50.768Z,98045.00
2022-10-29T07:41:32.046Z,98040.00
2022-10-29T07:44:18.776Z,98042.00
2022-10-29T07:46:59.199Z,98041.00
2022-10-29T07:49:45.794Z,98049.00
2022-10-29T07:52:25.948Z,98031.00
2022-10-29T07:55:14.792Z,98047.00
2022-10-29T07:58:08.767Z,98040.00
2022-10-29T08:00:57.815Z,98046.00
2022-10-29T08:03:44.776Z,98071.00
2022-10-29T08:06:25.430Z,98049.00
2022-10-29T08:09:11.855Z,98057.00
2022-10-29T08:11:52.391Z,98061.00
2022-10-29T08:14:38.783Z,98076.00
2022-10-29T08:17:19.473Z,98068.00
2022-10-29T08:20:05.821Z,98067.00
2022-10-29T08:22:54.074Z,98052.00
2022-10-29T08:25:33.921Z,98064.00
2022-10-29T08:28:25.671Z,98058.00
2022-10-29T08:31:05.833Z,98059.00
2022-10-29T08:33:54.772Z,98056.00
2022-10-29T08:36:34.849Z,98054.00
2022-10-29T08:39:21.797Z,98054.00
2022-10-29T08:43:04.792Z,98038.00
2022-10-29T08:45:58.782Z,98037.00
2022-10-29T08:48:58.824Z,98042.00
2022-10-29T08:51:44.618Z,98039.00
2022-10-29T08:54:32.503Z,98035.00
2022-10-29T08:57:26.005Z,98039.00
2022-10-29T09:00:28.884Z,98043.00
2022-10-29T09:03:19.809Z,98022.00
2022-10-29T09:06:20.861Z,98032.00
2022-10-29T09:09:36.966Z,98021.00
2022-10-29T09:12:50.809Z,98035.00
2022-10-29T09:16:14.864Z,98027.00
2022-10-29T09:19:20.813Z,98035.00
2022-10-29T09:22:38.823Z,98032.00
2022-10-29T09:25:35.859Z,98017.00
2022-10-29T09:29:01.816Z,98035.00
2022-10-29T09:31:55.867Z,98039.00
2022-10-29T09:34:58.970Z,98044.00
2022-10-29T09:38:05.845Z,98028.00
2022-10-29T09:40:46.873Z,98036.00
2022-10-29T09:44:12.834Z,98028.00
2022-10-29T09:47:49.837Z,98014.00
2022-10-29T09:51:02.884Z,98009.00
2022-10-29T09:53:50.869Z,98014.00
2022-10-29T09:56:30.890Z,98010.00
2022-10-29T09:59:35.861Z,98014.00
2022-10-29T10:02:38.976Z,98016.00
2022-10-29T10:05:35.849Z,98023.00
2022-10-29T10:08:27.846Z,98005.00
2022-10-29T10:11:19.597Z,98002.00
2022-10-29T10:14:13.970Z,98015.00
2022-10-29T10:16:59.408Z,98003.00
2022-10-29T10:19:47.848Z,98012.00
2022-10-29T10:22:30.358Z,98013.00
2022-10-29T10:25:45.931Z,98000.00
2022-10-29T10:28:35.862Z,97999.00
2022-10-29T10:31:23.055Z,97994.00
2022-10-29T10:34:41.874Z,97994.00
2022-10-29T10:37:26.952Z,97993.00
2022-10-29T10:40:30.868Z,97981.00
2022-10-29T10:43:27.847Z,97996.00
2022-10-29T10:46:26.445Z,98000.00
2022-10-29T10:49:24.848Z,97982.00
2022-10-29T10:52:31.578Z,97993.00
2022-10-29T10:55:51.066Z,97986.00
2022-10-29T10:58:46.895Z,97989.00
2022-10-29T11:01:50.058Z,97991.00
2022-10-29T11:04:44.889Z,97985.00
2022-10-29T11:07:26.936Z,97968.00
2022-10-29T11:10:20.041Z,97981.00
2022-10-29T11:13:11.041Z,97975.00
2022-10-29T11:16:20.822Z,97962.00
2022-10-29T11:19:25.881Z,97963.00
2022-10-29T11:22:29.677Z,97972.00
2022-10-29T11:25:33.914Z,97968.00
2022-10-29T11:28:46.913Z,97965.00
2022-10-29T11:31:55.980Z,97968.00
2022-10-29T11:35:10.895Z,97954.00
2022-10-29T11:38:38.925Z,97959.00
2022-10-29T11:41:38.066Z,97967.00
2022-10-29T11:44:28.920Z,97965.00
2022-10-29T11:47:57.228Z,97972.00
2022-10-29T11:50:48.966Z,97954.00
2022-10-29T11:54:02.967Z,97947.00
2022-10-29T11:57:21.036Z,97960.00
2022-10-29T12:00:21.904Z,97957.00
2022-10-29T12:03:34.014Z,97947.00
2022-10-29T12:06:39.463Z,97955.00
2022-10-29T12:09:55.929Z,97952.00
2022-10-29T12:13:34.961Z,97949.00
2022-10-29T12:16:46.001Z,97946.00
2022-10-29T12:20:33.953Z,97956.00
2022-10-29T12:23:46.930Z,97948.00
2022-10-29T12:27:05.444Z,97954.00
2022-10-29T12:30:06.937Z,97948.00
2022-10-29T12:33:05.336Z,97950.00
2022-10-29T12:36:14.939Z,97946.00
2022-10-29T12:39:03.978Z,97944.00
2022-10-29T12:41:54.021Z,97940.00
2022-10-29T12:44:50.953Z,97934.00
2022-10-29T12:48:26.948Z,97944.00
2022-10-29T12:51:47.928Z,97936.00
2022-10-29T12:54:54.970Z,97926.00
2022-10-29T12:57:42.963Z,97936.00
2022-10-29T13:00:31.983Z,97932.00
2022-10-29T13:03:19.001Z,97933.00
2022-10-29T13:05:59.018Z,97920.00
2022-10-29T13:08:46.985Z,97924.00
2022-10-29T13:11:31.013Z,97915.00
2022-10-29T13:14:25.985Z,97912.00
2022-10-29T13:17:15.968Z,97926.00
2022-10-29T13:20:13.002Z,97915.00
2022-10-29T13:23:09.703Z,97917.00
2022-10-29T13:26:00.963Z,97899.00
2022-10-29T13:28:51.180Z,97905.00
2022-10-29T13:31:31.522Z,97900.00
2022-10-29T13:34:18.993Z,97904.00
2022-10-29T13:37:51.987Z,97899.00
2022-10-29T13:40:38.045Z,97895.00
2022-10-29T13:43:25.984Z,97904.00
2022-10-29T13:46:21.059Z,97898.00
2022-10-29T13:49:17.985Z,97902.00
2022-10-29T13:52:16.004Z,97898.00
2022-10-29T13:55:07.036Z,97899.00
2022-10-29T13:58:18.978Z,97903.00
2022-10-29T14:01:07.209Z,97898.00
2022-10-29T14:04:34.984Z,97895.00
2022-10-29T14:07:31.002Z,97887.00
2022-10-29T14:10:24.092Z,97892.00
2022-10-29T14:13:27.037Z,97882.00
2022-10-29T14:16:20.329Z,97885.00
2022-10-29T14:19:26.016Z,97875.00
2022-10-29T14:22:13.009Z,97879.00
2022-10-29T14:24:53.737Z,97884.00
2022-10-29T14:27:40.074Z,97873.00
2022-10-29T14:30:21.020Z,97869.00
2022-10-29T14:33:08.026Z,97870.00
2022-10-29T14:35:48.981Z,97863.00
2022-10-29T14:38:48.045Z,97866.00
2022-10-29T14:41:31.291Z,97868.00
2022-10-29T14:44:24.025Z,97855.00
2022-10-29T14:47:20.040Z,97864.00
2022-10-29T14:50:10.028Z,97863.00
2022-10-29T14:53:03.037Z,97864.00
2022-10-29T14:55:54.096Z,97848.00
2022-10-29T14:58:44.042Z,97857.00
2022-10-29T15:01:24.246Z,97874.00
2022-10-29T15:04:11.032Z,97862.00
2022-10-29T15:06:51.175Z,97869.00
2022-10-29T15:09:38.020Z,97869.00
2022-10-29T15:12:39.091Z,97876.00
2022-10-29T15:15:36.026Z,97868.00
2022-10-29T15:18:35.064Z,97862.00
2022-10-29T15:21:33.001Z,97853.00
2022-10-29T15:24:30.065Z,97866.00
2022-10-29T15:27:21.058Z,97872.00
2022-10-29T15:30:02.133Z,97871.00
2022-10-29T15:32:49.077Z,97868.00
2022-10-29T15:35:30.146Z,97863.00
2022-10-29T15:38:37.048Z,97867.00
2022-10-29T15:41:26.103Z,97865.00
2022-10-29T15:44:45.105Z,97850.00
2022-10-29T15:47:40.067Z,97870.00
2022-10-29T15:50:39.562Z,97854.00
2022-10-29T15:53:31.076Z,97867.00
2022-10-29T15:56:13.521Z,97856.00
2022-10-29T15:59:00.082Z,97858.00
2022-10-29T16:01:40.925Z,97840.00
2022-10-29T16:04:28.083Z,97843.00
2022-10-29T16:07:23.069Z,97857.00
2022-10-29T16:10:06.252Z,97856.00
2022-10-29T16:12:56.452Z,97859.00
2022-10-29T16:15:38.803Z,97861.00
2022-10-29T16:18:29.101Z,97857.00
2022-10-29T16:21:13.334Z,97850.00
2022-10-29T16:24:00.113Z,97854.00
2022-10-29T16:26:40.132Z,97863.00
2022-10-29T16:29:27.108Z,97856.00
2022-10-29T16:32:14.089Z,97847.00
2022-10-29T16:34:54.760Z,97852.00
2022-10-29T16:37:41.108Z,97854.00
2022-10-29T16:40:25.914Z,97842.00
2022-10-29T16:43:12.116Z,97846.00
2022-10-29T16:48:39.092Z,97854.00
2022-10-29T16:51:26.103Z,97854.00
2022-10-29T16:54:13.092Z,97848.00
2022-10-29T16:56:54.951Z,97844.00
2022-10-29T16:59:42.121Z,97853.00
2022-10-29T17:02:29.114Z,97850.00
2022-10-29T17:05:09.315Z,97854.00
2022-10-29T17:07:56.098Z,97839.00
2022-10-29T17:10:36.406Z,97846.00
2022-10-29T17:13:23.104Z,97844.00
2022-10-29T17:16:03.399Z,97851.00
2022-10-29T17:18:50.134Z,97850.00
2022-10-29T17:21:31.481Z,97844.00
2022-10-29T17:24:18.140Z,97838.00
2022-10-29T17:26:59.275Z,97836.00
2022-10-29T17:29:46.129Z,97845.00
2022-10-29T17:32:33.134Z,97854.00
2022-10-29T17:35:13.760Z,97853.00
2022-10-29T17:38:00.140Z,97840.00
2022-10-29T17:40:44.715Z,97848.00
2022-10-29T17:43:31.146Z,97841.00
2022-10-29T17:46:11.772Z,97842.00
2022-10-29T17:48:58.271Z,97858.00
2022-10-29T17:51:38.806Z,97845.00
2022-10-29T17:54:30.160Z,97868.00
2022-10-29T17:57:17.144Z,97850.00
2022-10-29T17:59:57.200Z,97858.00
2022-10-29T18:02:44.158Z,97842.00
2022-10-29T18:05:25.179Z,97847.00
2022-10-29T18:08:12.157Z,97851.00
2022-10-29T18:10:53.484Z,97845.00
2022-10-29T18:13:48.370Z,97840.00
2022-10-29T18:16:32.299Z,97847.00
2022-10-29T18:19:19.142Z,97863.00
2022-10-29T18:22:06.177Z,97852.00
2022-10-29T18:24:46.975Z,97851.00
2022-10-29T18:27:33.183Z,97869.00
2022-10-29T18:30:13.821Z,97852.00
2022-10-29T18:33:00.638Z,97868.00
2022-10-29T18:35:40.808Z,97856.00
2022-10-29T18:38:30.796Z,97862.00
2022-10-29T18:41:10.827Z,97855.00
2022-10-29T18:43:57.174Z,97865.00
2022-10-29T18:46:44.179Z,97868.00
2022-10-29T18:49:24.364Z,97865.00
2022-10-29T18:52:11.367Z,97857.00
2022-10-29T18:54:51.351Z,97860.00
2022-10-29T18:57:38.155Z,97855.00
2022-10-29T19:00:20.241Z,97863.00
2022-10-29T19:03:07.161Z,97867.00
2022-10-29T19:05:48.271Z,97852.00
2022-10-29T19:08:36.169Z,97859.00
2022-10-29T19:11:29.206Z,97864.00
2022-10-29T19:14:20.183Z,97859.00
2022-10-29T19:17:07.180Z,97857.00
2022-10-29T19:19:47.840Z,97857.00
2022-10-29T19:22:34.173Z,97859.00
2022-10-29T19:25:14.901Z,97865.00
2022-10-29T19:28:01.216Z,97856.00
2022-10-29T19:30:41.818Z,97850.00
2022-10-29T19:33:28.194Z,97844.00
2022-10-29T19:36:16.200Z,97845.00
2022-10-29T19:39:04.214Z,97853.00
2022-10-29T19:41:51.204Z,97851.00
2022-10-29T19:44:31.256Z,97849.00
2022-10-29T19:47:18.199Z,97848.00
2022-10-29T19:49:58.261Z,97862.00
2022-10-29T19:52:45.218Z,97846.00
2022-10-29T19:55:25.255Z,97852.00
2022-10-29T19:58:12.216Z,97844.00
2022-10-29T20:00:59.265Z,97848.00
2022-10-29T20:03:46.211Z,97848.00
2022-10-29T20:06:33.202Z,97849.00
2022-10-29T20:09:20.229Z,97844.00
2022-10-29T20:12:07.230Z,97838.00
2022-10-29T20:14:47.840Z,97842.00
2022-10-29T20:17:34.232Z,97842.00
2022-10-29T20:20:17.213Z,97842.00
2022-10-29T20:23:04.222Z,97846.00
2022-10-29T20:25:44.904Z,97850.00
2022-10-29T20:28:31.240Z,97833.00
2022-10-29T20:31:17.894Z,97844.00
2022-10-29T20:34:13.212Z,97834.00
2022-10-29T20:39:45.295Z,97846.00
2022-10-29T20:42:32.240Z,97844.00
2022-10-29T20:45:13.350Z,97841.00
2022-10-29T20:48:00.706Z,97823.00
2022-10-29T20:50:40.306Z,97841.00
2022-10-29T20:53:28.237Z,97834.00
2022-10-29T20:56:10.399Z,97835.00
2022-10-29T20:59:01.250Z,97838.00
2022-10-29T21:01:48.354Z,97833.00
2022-10-29T21:04:28.960Z,97840.00
2022-10-29T21:07:15.253Z,97838.00
2022-10-29T21:09:56.006Z,97841.00
2022-10-29T21:12:42.245Z,97838.00
2022-10-29T21:15:23.113Z,97833.00
2022-10-29T21:18:11.255Z,97851.00
2022-10-29T21:20:51.957Z,97841.00
2022-10-29T21:23:38.269Z,97848.00
2022-10-29T21:26:30.256Z,97844.00
2022-10-29T21:29:17.259Z,97840.00
2022-10-29T21:32:04.271Z,97848.00
2022-10-29T21:34:44.506Z,97848.00
2022-10-29T21:37:31.280Z,97833.00
2022-10-29T21:40:12.355Z,97840.00
2022-10-29T21:42:59.725Z,97845.00
2022-10-29T21:45:39.315Z,97847.00
2022-10-29T21:48:27.291Z,97841.00
2022-10-29T21:51:24.268Z,97831.00
2022-10-29T21:54:05.102Z,97839.00
2022-10-29T21:56:51.272Z,97861.00
2022-10-29T21:59:31.877Z,97844.00
2022-10-29T22:02:18.355Z,97847.00
2022-10-29T22:04:58.899Z,97855.00
2022-10-29T22:07:45.293Z,97839.00
2022-10-29T22:10:25.940Z,97846.00
2022-10-29T22:13:14.463Z,97846.00
2022-10-29T22:16:02.302Z,97837.00
2022-10-29T22:18:44.395Z,97844.00
2022-10-29T22:21:33.292Z,97852.00
2022-10-29T22:24:15.333Z,97829.00
2022-10-29T22:27:02.281Z,97834.00
2022-10-29T22:29:42.345Z,97852.00
2022-10-29T22:32:29.280Z,97844.00
2022-10-29T22:35:09.362Z,97838.00
2022-10-29T22:40:43.308Z,97848.00
2022-10-29T22:43:23.942Z,97836.00
2022-10-29T22:46:10.300Z,97851.00
2022-10-29T22:48:51.198Z,97834.00
2022-10-29T22:51:46.291Z,97844.00
2022-10-29T22:54:26.955Z,97843.00
2022-10-29T22:57:13.307Z,97831.00
2022-10-29T22:59:53.929Z,97829.00
2022-10-29T23:02:40.341Z,97834.00
2022-10-29T23:05:27.318Z,97827.00
2022-10-29T23:08:14.326Z,97821.00
2022-10-29T23:10:55.364Z,97845.00
2022-10-29T23:13:42.313Z,97825.00
2022-10-29T23:16:33.320Z,97831.00
2022-10-29T23:19:13.420Z,97822.00
2022-10-29T23:22:00.332Z,97826.00
2022-10-29T23:24:40.410Z,97838.00
2022-10-29T23:27:27.320Z,97828.00
2022-10-29T23:30:07.375Z,97824.00
2022-10-29T23:32:54.539Z,97834.00
2022-10-29T23:35:34.414Z,97821.00
2022-10-29T23:38:22.352Z,97838.00
2022-10-29T23:41:09.395Z,97835.00
2022-10-29T23:43:56.474Z,97825.00
2022-10-29T23:46:36.338Z,97831.00
2022-10-29T23:49:23.323Z,97833.00
2022-10-29T23:52:10.343Z,97821.00
2022-10-29T23:54:51.099Z,97830.00
2022-10-29T23:57:37.320Z,97830.00
